Time;durP1;ratioP1;P1;durP2;ratioP2;P2;SDS_P1;SDS_P2;PMS_P1;PMS_P2;Temp;Humidity;BMP_temperature;BMP_pressure;BME280_temperature;BME280_humidity;BME280_pressure;Samples;Min_cycle;Max_cycle;Signal;HPM_P1;HPM_P2
2022/12/01 12:16:19;;;;;;;0.20;0.20;;;;;;;;;;5068452;28;20461;-50
2022/12/01 12:19:00;;;;;;;0.20;0.20;;;;;;;;;;5068489;28;20052;-80
2022/12/01 12:21:53;;;;;;;0.47;0.35;;;;;;;;;;5049991;28;20037;-81
2022/12/01 12:24:19;;;;;;;0.20;0.20;;;;;;;;;;5051297;28;20029;-83
2022/12/01 12:26:48;;;;;;;0.30;0.30;;;;;;;;;;5066577;28;20036;-79
2022/12/01 12:29:14;;;;;;;0.20;0.20;;;;;;;;;;5067483;28;20025;-79
2022/12/01 12:31:46;;;;;;;0.20;0.20;;;;;;;;;;5064571;28;20020;-82
2022/12/01 12:34:24;;;;;;;0.35;0.35;;;15.00;99.90;;;;;;5065663;28;20094;-81
2022/12/01 12:37:04;;;;;;;1.13;0.57;;;15.30;99.90;;;;;;5063849;28;20029;-69
2022/12/01 12:39:57;;;;;;;0.40;0.40;;;15.30;99.90;;;;;;5047959;28;20029;-69
2022/12/01 12:42:49;;;;;;;0.20;0.20;;;16.10;99.90;;;;;;5067004;28;20131;-69
2022/12/01 12:45:38;;;;;;;0.65;0.65;;;16.50;99.90;;;;;;5064900;28;20375;-71
2022/12/01 12:48:19;;;;;;;0.10;0.10;;;16.70;99.90;;;;;;5066733;28;20487;-73
2022/12/01 12:50:57;;;;;;;0.28;0.28;;;16.70;99.90;;;;;;5066791;28;20068;-73
2022/12/01 12:53:28;;;;;;;0.20;0.20;;;17.00;99.90;;;;;;5067755;28;20380;-74
2022/12/01 12:55:58;;;;;;;0.30;0.30;;;17.10;99.90;;;;;;5059444;28;20109;-72
2022/12/01 12:58:35;;;;;;;0.20;0.20;;;17.40;99.90;;;;;;5047732;28;20036;-71
2022/12/01 13:01:30;;;;;;;0.20;0.20;;;17.50;99.90;;;;;;5048260;28;20099;-72
2022/12/01 13:04:08;;;;;;;0.20;0.20;;;17.90;99.90;;;;;;5047365;28;20041;-71
2022/12/01 13:07:23;;;;;;;0.10;0.10;;;17.80;99.90;;;;;;5049119;28;20083;-68
2022/12/01 13:09:56;;;;;;;0.35;0.35;;;17.20;99.90;;;;;;5049613;28;20167;-68
2022/12/01 13:12:35;;;;;;;0.30;0.30;;;17.30;99.90;;;;;;5047535;28;20092;-68
2022/12/01 13:15:01;;;;;;;1.23;0.40;;;17.60;99.90;;;;;;5048423;28;20485;-67
2022/12/01 13:17:37;;;;;;;1.00;1.00;;;17.40;99.90;;;;;;5049910;28;20278;-66
2022/12/01 13:20:05;;;;;;;0.50;0.50;;;17.40;99.90;;;;;;5056643;28;20013;-67
2022/12/01 13:22:35;;;;;;;0.17;0.17;;;18.10;99.90;;;;;;5066986;28;20020;-67
2022/12/01 13:25:02;;;;;;;0.35;0.35;;;18.40;99.90;;;;;;5050529;28;20033;-68
2022/12/01 13:27:33;;;;;;;1.02;1.00;;;19.00;99.90;;;;;;5036646;28;20496;-65
2022/12/01 13:30:00;;;;;;;0.30;0.30;;;19.30;99.90;;;;;;5045650;28;20469;-65
2022/12/01 13:32:36;;;;;;;0.28;0.28;;;19.60;99.90;;;;;;5035173;28;20025;-66
2022/12/01 13:35:25;;;;;;;0.10;0.10;;;19.90;99.90;;;;;;5034299;28;20014;-65
2022/12/01 13:37:51;;;;;;;0.40;0.30;;;19.90;99.90;;;;;;5053410;28;20029;-67
2022/12/01 13:40:30;;;;;;;0.60;0.60;;;19.50;99.90;;;;;;5053580;28;20033;-66
2022/12/01 13:43:00;;;;;;;0.10;0.10;;;19.30;99.90;;;;;;5053750;28;20197;-66
2022/12/01 13:45:31;;;;;;;0.30;0.30;;;18.50;99.90;;;;;;5046426;28;20265;-66
2022/12/01 13:47:58;;;;;;;0.15;0.15;;;17.70;99.90;;;;;;5033607;28;20512;-66
2022/12/01 13:50:37;;;;;;;4.65;0.88;;;17.90;99.90;;;;;;5033716;28;20124;-66
2022/12/01 13:53:18;;;;;;;0.20;0.20;;;18.30;99.90;;;;;;5036490;28;20590;-66
2022/12/01 13:56:22;;;;;;;0.20;0.20;;;18.70;99.90;;;;;;5050408;28;20413;-65
2022/12/01 13:58:53;;;;;;;0.30;0.30;;;18.30;99.90;;;;;;5038480;28;20056;-64
2022/12/01 14:01:18;;;;;;;0.20;0.20;;;17.20;99.90;;;;;;5034922;28;20414;-66
2022/12/01 14:04:20;;;;;;;0.20;0.20;;;16.50;99.90;;;;;;5040990;28;20055;-66
2022/12/01 14:07:20;;;;;;;1.67;1.58;;;15.50;99.90;;;;;;5033936;28;20040;-65
2022/12/01 14:09:49;;;;;;;1.65;1.55;;;14.90;99.90;;;;;;5036510;28;20033;-65
2022/12/01 14:12:30;;;;;;;0.20;0.20;;;15.20;99.90;;;;;;5053106;28;20037;-65
2022/12/01 14:15:02;;;;;;;0.20;0.20;;;15.90;99.90;;;;;;5037928;28;20053;-66
2022/12/01 14:17:37;;;;;;;0.30;0.30;;;16.80;99.90;;;;;;5032849;28;20095;-65
2022/12/01 14:20:19;;;;;;;0.20;0.20;;;17.30;99.90;;;;;;5032820;28;20060;-66
2022/12/01 14:22:46;;;;;;;0.30;0.30;;;;;;;;;;5032909;28;20071;-65
2022/12/01 14:25:21;;;;;;;0.30;0.30;;;;;;;;;;5033895;28;20072;-67
2022/12/01 14:27:53;;;;;;;0.10;0.10;;;18.40;99.90;;;;;;5032620;28;20029;-66
2022/12/01 14:30:38;;;;;;;0.17;0.17;;;18.50;99.90;;;;;;5043391;28;20080;-66
2022/12/01 14:33:42;;;;;;;0.50;0.50;;;18.60;99.90;;;;;;5047294;28;20195;-71
2022/12/01 14:36:14;;;;;;;0.30;0.30;;;18.20;99.90;;;;;;5031816;28;20040;-70
2022/12/01 14:38:40;;;;;;;;;;;16.90;99.90;;;;;;5031876;28;20022;-69
2022/12/01 14:41:09;;;;;;;0.85;0.80;;;16.30;99.90;;;;;;5032550;28;19909;-71
2022/12/01 14:46:25;;;;;;;0.35;0.35;;;15.10;99.90;;;;;;5032179;28;20059;-70
2022/12/01 14:48:54;;;;;;;0.30;0.30;;;14.30;99.90;;;;;;5032388;28;20105;-70
2022/12/01 14:51:27;;;;;;;0.40;0.40;;;13.60;99.90;;;;;;5032403;28;20482;-71
2022/12/01 14:53:54;;;;;;;0.30;0.30;;;12.90;99.90;;;;;;5032438;28;20022;-71
2022/12/01 14:56:23;;;;;;;0.40;0.40;;;12.40;99.90;;;;;;5032255;28;20022;-70
2022/12/01 14:59:00;;;;;;;0.30;0.30;;;12.00;99.90;;;;;;5032111;28;20055;-70
2022/12/01 15:01:36;;;;;;;0.20;0.20;;;11.60;99.90;;;;;;5032209;28;20022;-71
2022/12/01 15:04:04;;;;;;;0.30;0.30;;;11.30;99.90;;;;;;5031983;28;20017;-71
2022/12/01 15:06:32;;;;;;;0.30;0.30;;;11.00;99.90;;;;;;5032275;28;20029;-70
2022/12/01 15:09:16;;;;;;;0.20;0.20;;;10.80;99.90;;;;;;5032039;28;20021;-71
2022/12/01 15:12:22;;;;;;;0.30;0.30;;;10.60;99.90;;;;;;5032122;28;20163;-71
2022/12/01 15:14:48;;;;;;;0.20;0.20;;;10.40;99.90;;;;;;5031623;28;20095;-71
2022/12/01 15:17:32;;;;;;;0.20;0.20;;;10.20;99.90;;;;;;5031993;28;20036;-71
2022/12/01 15:19:58;;;;;;;0.30;0.30;;;10.00;99.90;;;;;;5031968;28;20219;-71
2022/12/01 15:22:29;;;;;;;0.30;0.30;;;9.90;99.90;;;;;;5031615;28;20544;-72
2022/12/01 15:25:04;;;;;;;0.30;0.30;;;9.90;99.90;;;;;;5030305;28;20394;-71
2022/12/01 15:27:31;;;;;;;0.30;0.30;;;9.70;99.90;;;;;;5031652;28;20159;-70
2022/12/01 15:30:03;;;;;;;0.28;0.28;;;9.60;99.90;;;;;;5031731;28;20092;-71
2022/12/01 15:32:31;;;;;;;0.30;0.30;;;9.60;99.90;;;;;;5031490;28;20026;-70
2022/12/01 15:35:03;;;;;;;0.30;0.30;;;9.50;99.90;;;;;;5031530;28;20037;-71
2022/12/01 15:37:41;;;;;;;0.20;0.20;;;9.40;99.90;;;;;;5031521;28;20480;-71
2022/12/01 15:40:10;;;;;;;0.20;0.20;;;9.40;99.90;;;;;;5031687;28;20021;-73
2022/12/01 15:42:38;;;;;;;2.05;0.93;;;9.30;99.90;;;;;;5031481;28;20021;-71
2022/12/01 15:45:03;;;;;;;0.30;0.30;;;9.30;99.90;;;;;;5031871;28;20036;-71
2022/12/01 15:47:36;;;;;;;0.20;0.20;;;9.30;99.90;;;;;;5031465;28;20026;-70
2022/12/01 15:50:04;;;;;;;0.20;0.20;;;9.30;99.90;;;;;;5031384;28;20030;-71
2022/12/01 15:52:29;;;;;;;0.40;0.40;;;9.30;99.90;;;;;;5031203;28;20026;-71
2022/12/01 15:54:59;;;;;;;0.30;0.30;;;9.20;99.90;;;;;;5031242;28;20100;-71
2022/12/01 15:57:25;;;;;;;0.32;0.32;;;9.20;99.90;;;;;;5031376;28;20037;-72
2022/12/01 15:59:56;;;;;;;0.30;0.30;;;9.20;99.90;;;;;;5031352;28;20097;-72
2022/12/01 16:02:31;;;;;;;0.30;0.30;;;9.30;99.90;;;;;;5031071;28;20079;-71
2022/12/01 16:05:22;;;;;;;0.20;0.20;;;9.30;99.90;;;;;;5034242;28;20123;-71
2022/12/01 16:07:48;;;;;;;0.30;0.30;;;9.40;99.90;;;;;;5039135;28;20025;-71
2022/12/01 16:10:30;;;;;;;0.30;0.30;;;9.40;99.90;;;;;;5031185;28;20136;-71
2022/12/01 16:13:34;;;;;;;0.68;0.68;;;9.40;99.90;;;;;;5031167;28;20452;-72
2022/12/01 16:16:19;;;;;;;0.55;0.55;;;9.40;99.90;;;;;;5036932;28;20136;-71
2022/12/01 16:18:55;;;;;;;1.30;1.20;;;9.40;99.90;;;;;;5030500;28;20017;-71
2022/12/01 16:21:22;;;;;;;0.68;0.68;;;9.30;99.90;;;;;;5031186;28;20071;-71
2022/12/01 16:23:56;;;;;;;0.30;0.30;;;9.30;99.90;;;;;;5034396;28;20100;-72
2022/12/01 16:26:22;;;;;;;0.22;0.22;;;;;;;;;;5032202;28;20072;-74
2022/12/01 16:28:47;;;;;;;0.20;0.20;;;9.40;99.90;;;;;;5050923;28;20021;-73
2022/12/01 16:31:25;;;;;;;0.60;0.60;;;9.30;99.90;;;;;;5051065;28;20115;-73
2022/12/01 16:34:00;;;;;;;0.25;0.25;;;9.30;99.90;;;;;;5037774;28;20022;-72
2022/12/01 16:36:26;;;;;;;0.20;0.20;;;9.30;99.90;;;;;;5030774;28;20611;-70
2022/12/01 16:38:52;;;;;;;0.30;0.30;;;9.30;99.90;;;;;;5030864;28;20037;-72
2022/12/01 16:41:28;;;;;;;0.75;0.75;;;9.30;99.90;;;;;;5032671;28;20018;-71
2022/12/01 16:43:53;;;;;;;0.30;0.30;;;9.30;99.90;;;;;;5031980;28;20068;-71
2022/12/01 16:46:19;;;;;;;0.40;0.40;;;9.40;99.90;;;;;;5033555;28;20052;-72
2022/12/01 16:48:44;;;;;;;0.30;0.30;;;9.40;99.90;;;;;;5050591;28;20106;-71
2022/12/01 16:51:12;;;;;;;0.30;0.30;;;9.30;99.90;;;;;;5050706;28;20025;-71
2022/12/01 16:53:38;;;;;;;0.20;0.20;;;9.40;99.90;;;;;;5043487;28;20025;-69
2022/12/01 16:56:04;;;;;;;0.73;0.73;;;9.40;99.90;;;;;;5036843;28;20036;-71
2022/12/01 16:58:30;;;;;;;0.28;0.28;;;9.40;99.90;;;;;;5048913;28;20075;-72
2022/12/01 17:00:56;;;;;;;0.45;0.45;;;9.40;99.90;;;;;;5045419;28;20029;-72
2022/12/01 17:03:24;;;;;;;0.63;0.63;;;9.30;99.90;;;;;;5034335;28;20272;-72
2022/12/01 17:05:50;;;;;;;0.30;0.30;;;9.30;99.90;;;;;;5034752;28;20366;-71
2022/12/01 17:08:16;;;;;;;0.30;0.30;;;9.30;99.90;;;;;;5034478;28;20021;-72
2022/12/01 17:10:44;;;;;;;0.30;0.30;;;9.30;99.90;;;;;;5034267;28;20048;-73
2022/12/01 17:13:10;;;;;;;0.77;0.77;;;9.30;99.90;;;;;;5039521;28;20021;-73
2022/12/01 17:15:47;;;;;;;0.30;0.30;;;9.30;99.90;;;;;;5054231;28;20045;-73
2022/12/01 17:18:14;;;;;;;0.60;0.60;;;9.30;99.90;;;;;;5049807;28;20086;-71
2022/12/01 17:20:41;;;;;;;0.50;0.50;;;9.30;99.90;;;;;;5050179;28;20056;-73
2022/12/01 17:23:06;;;;;;;0.35;0.35;;;9.30;99.90;;;;;;5038401;28;20034;-73
2022/12/01 17:25:32;;;;;;;0.20;0.20;;;9.30;99.90;;;;;;5053091;28;20029;-73
2022/12/01 17:27:58;;;;;;;0.45;0.45;;;9.30;99.90;;;;;;5045640;28;20104;-73
2022/12/01 17:30:24;;;;;;;0.30;0.30;;;9.30;99.90;;;;;;5034153;28;20421;-73
2022/12/01 17:32:49;;;;;;;0.50;0.30;;;9.30;99.90;;;;;;5033874;28;20462;-72
2022/12/01 17:35:15;;;;;;;0.22;0.22;;;9.30;99.90;;;;;;5033920;28;20071;-73
2022/12/01 17:37:41;;;;;;;0.20;0.20;;;9.30;99.90;;;;;;5033777;28;20029;-72
2022/12/01 17:40:09;;;;;;;0.30;0.30;;;9.20;99.90;;;;;;5033934;28;20055;-72
2022/12/01 17:42:35;;;;;;;0.30;0.30;;;9.20;99.90;;;;;;5039021;28;20032;-71
2022/12/01 17:45:01;;;;;;;0.30;0.30;;;9.20;99.90;;;;;;5037353;28;20034;-73
2022/12/01 17:47:26;;;;;;;0.20;0.20;;;9.20;99.90;;;;;;5033852;28;20048;-73
2022/12/01 17:49:53;;;;;;;0.30;0.30;;;9.20;99.90;;;;;;5033677;28;20036;-72
2022/12/01 17:52:18;;;;;;;0.28;0.28;;;9.20;99.90;;;;;;5043011;28;20021;-73
2022/12/01 17:54:44;;;;;;;1.48;0.93;;;9.20;99.90;;;;;;5053603;28;20036;-73
2022/12/01 17:57:11;;;;;;;1.00;1.00;;;9.20;99.90;;;;;;5036380;28;20029;-73
2022/12/01 17:59:37;;;;;;;0.95;0.95;;;9.20;99.90;;;;;;5033488;28;20570;-72
2022/12/01 18:02:03;;;;;;;1.10;1.10;;;9.20;99.90;;;;;;5048054;28;20442;-71
2022/12/01 18:04:30;;;;;;;0.25;0.25;;;9.20;99.90;;;;;;5035618;28;20037;-71
2022/12/01 18:06:56;;;;;;;0.30;0.30;;;9.20;99.90;;;;;;5045056;28;20079;-72
2022/12/01 18:09:22;;;;;;;1.63;1.52;;;9.30;99.90;;;;;;5047631;28;20416;-73
2022/12/01 18:11:48;;;;;;;0.30;0.30;;;9.30;99.90;;;;;;5049151;28;20021;-73
2022/12/01 18:14:17;;;;;;;0.30;0.30;;;9.30;99.90;;;;;;5034479;28;20565;-72
2022/12/01 18:16:43;;;;;;;0.30;0.30;;;9.30;99.90;;;;;;5050428;28;20500;-73
2022/12/01 18:19:11;;;;;;;0.22;0.22;;;9.30;99.90;;;;;;5052937;28;20062;-74
2022/12/01 18:21:37;;;;;;;0.30;0.30;;;9.30;99.90;;;;;;5040271;28;20037;-73
2022/12/01 18:24:04;;;;;;;0.88;0.88;;;9.30;99.90;;;;;;5052937;28;20028;-75
2022/12/01 18:26:32;;;;;;;0.30;0.30;;;9.30;99.90;;;;;;5052844;28;20025;-73
2022/12/01 18:29:06;;;;;;;0.30;0.30;;;9.30;99.90;;;;;;5052862;28;20025;-74
2022/12/01 18:31:32;;;;;;;0.22;0.22;;;9.30;99.90;;;;;;5034680;28;20034;-73
2022/12/01 18:34:03;;;;;;;0.57;0.57;;;9.30;99.90;;;;;;5032946;28;20045;-74
2022/12/01 18:36:30;;;;;;;0.20;0.20;;;9.30;99.90;;;;;;5032598;28;20029;-73
2022/12/01 18:38:57;;;;;;;0.20;0.20;;;9.30;99.90;;;;;;5032632;28;20037;-72
2022/12/01 18:41:23;;;;;;;0.47;0.47;;;9.30;99.90;;;;;;5032681;28;20078;-72
2022/12/01 18:43:49;;;;;;;0.30;0.30;;;9.30;99.90;;;;;;5032552;28;20032;-73
2022/12/01 18:46:17;;;;;;;0.70;0.70;;;9.30;99.90;;;;;;5034024;28;20040;-72
2022/12/01 18:48:44;;;;;;;1.48;1.40;;;9.20;99.90;;;;;;5032397;28;20583;-73
2022/12/01 18:51:11;;;;;;;0.40;0.40;;;9.30;99.90;;;;;;5032157;28;20033;-74
2022/12/01 18:53:37;;;;;;;0.30;0.30;;;9.20;99.90;;;;;;5032241;28;20168;-74
2022/12/01 18:56:07;;;;;;;0.45;0.45;;;9.20;99.90;;;;;;5031072;28;20108;-72
2022/12/01 18:58:33;;;;;;;0.30;0.30;;;9.30;99.90;;;;;;5044713;28;20035;-73
2022/12/01 19:00:59;;;;;;;0.30;0.30;;;9.30;99.90;;;;;;5040818;28;20044;-71
2022/12/01 19:03:29;;;;;;;0.30;0.30;;;9.30;99.90;;;;;;5042381;28;20253;-73
2022/12/01 19:05:54;;;;;;;0.30;0.30;;;9.30;99.90;;;;;;5039614;28;20093;-73
2022/12/01 19:08:20;;;;;;;1.00;0.85;;;9.30;99.90;;;;;;5037710;28;20146;-72
2022/12/01 19:11:03;;;;;;;0.30;0.30;;;9.30;99.90;;;;;;5035646;28;20053;-73
2022/12/01 19:13:30;;;;;;;0.50;0.50;;;9.30;99.90;;;;;;5052062;28;20048;-73
2022/12/01 19:15:56;;;;;;;0.88;0.88;;;9.30;99.90;;;;;;5051658;28;20033;-73
2022/12/01 19:18:22;;;;;;;0.47;0.47;;;9.30;99.90;;;;;;5045802;28;20041;-74
2022/12/01 19:20:48;;;;;;;0.45;0.45;;;9.20;99.90;;;;;;5031072;28;20022;-73
2022/12/01 19:23:14;;;;;;;3.15;2.92;;;9.20;99.90;;;;;;5047001;28;20381;-74
2022/12/01 19:25:39;;;;;;;0.50;0.50;;;9.10;99.90;;;;;;5031184;28;20048;-74
2022/12/01 19:28:05;;;;;;;0.82;0.82;;;9.10;99.90;;;;;;5034710;28;20031;-73
2022/12/01 19:30:31;;;;;;;0.30;0.30;;;9.10;99.90;;;;;;5049529;28;20066;-73
2022/12/01 19:32:57;;;;;;;0.60;0.60;;;9.10;99.90;;;;;;5051711;28;20511;-71
2022/12/01 19:35:22;;;;;;;0.40;0.40;;;9.10;99.90;;;;;;5044096;28;20051;-71
2022/12/01 19:37:51;;;;;;;2.47;2.28;;;9.00;99.90;;;;;;5041030;28;20025;-73
2022/12/01 19:40:17;;;;;;;2.20;2.13;;;9.00;99.90;;;;;;5041881;28;20063;-73
2022/12/01 19:42:43;;;;;;;1.15;1.15;;;8.90;99.90;;;;;;5040909;28;20025;-72
2022/12/01 19:45:09;;;;;;;0.30;0.30;;;8.90;99.90;;;;;;5033745;28;20510;-73
2022/12/01 19:47:35;;;;;;;0.28;0.28;;;8.90;99.90;;;;;;5050193;28;20029;-73
2022/12/01 19:50:01;;;;;;;0.30;0.30;;;8.80;99.90;;;;;;5051387;28;20035;-72
2022/12/01 19:52:29;;;;;;;0.35;0.35;;;8.80;99.90;;;;;;5035805;28;20691;-73
2022/12/01 19:54:55;;;;;;;1.17;1.15;;;8.80;99.90;;;;;;5031533;28;20486;-73
2022/12/01 19:57:21;;;;;;;0.55;0.55;;;8.80;99.90;;;;;;5032301;28;20040;-73
2022/12/01 19:59:47;;;;;;;0.30;0.30;;;8.80;99.90;;;;;;5037705;28;20112;-74
2022/12/01 20:02:13;;;;;;;0.45;0.45;;;8.90;99.90;;;;;;5031315;28;20017;-73
2022/12/01 20:04:39;;;;;;;1.08;0.80;;;8.90;99.90;;;;;;5043778;28;20036;-75
2022/12/01 20:07:05;;;;;;;0.95;0.95;;;8.90;99.90;;;;;;5041683;28;20017;-77
2022/12/01 20:09:31;;;;;;;1.52;1.42;;;8.90;99.90;;;;;;5031504;28;20032;-74
2022/12/01 20:11:57;;;;;;;0.22;0.22;;;8.90;99.90;;;;;;5031076;28;20034;-74
2022/12/01 20:14:23;;;;;;;0.30;0.30;;;8.90;99.90;;;;;;5032295;28;20041;-75
2022/12/01 20:16:48;;;;;;;3.83;1.10;;;8.90;99.90;;;;;;5031226;28;20025;-74
2022/12/01 20:19:14;;;;;;;1.30;1.00;;;8.80;99.90;;;;;;5039262;28;20033;-74
2022/12/01 20:21:43;;;;;;;2.65;1.17;;;8.80;99.90;;;;;;5046056;28;20498;-73
2022/12/01 20:24:15;;;;;;;0.30;0.30;;;8.80;99.90;;;;;;5049669;28;20106;-72
2022/12/01 20:26:48;;;;;;;0.70;0.70;;;8.80;99.90;;;;;;5033887;28;20041;-73
2022/12/01 20:29:17;;;;;;;0.43;0.43;;;8.70;99.90;;;;;;5030297;28;20041;-73
2022/12/01 20:31:43;;;;;;;1.00;1.00;;;8.70;99.90;;;;;;5030662;28;20040;-73
2022/12/01 20:34:16;;;;;;;1.85;1.70;;;8.70;99.90;;;;;;5030786;28;20021;-71
2022/12/01 20:36:42;;;;;;;0.40;0.40;;;8.70;99.90;;;;;;5033802;28;20518;-73
2022/12/01 20:39:10;;;;;;;1.02;1.02;;;8.60;99.90;;;;;;5034905;28;20060;-72
2022/12/01 20:41:36;;;;;;;0.50;0.50;;;8.60;99.90;;;;;;5044033;28;20112;-73
2022/12/01 20:44:02;;;;;;;2.38;1.55;;;8.60;99.90;;;;;;5035410;28;20029;-73
2022/12/01 20:46:28;;;;;;;0.30;0.30;;;8.60;99.90;;;;;;5034575;28;20166;-73
2022/12/01 20:48:53;;;;;;;1.20;1.10;;;8.60;99.90;;;;;;5034750;28;20028;-73
2022/12/01 20:51:19;;;;;;;0.88;0.88;;;8.60;99.90;;;;;;5034726;28;20589;-74
2022/12/01 20:53:45;;;;;;;3.40;3.30;;;8.60;99.90;;;;;;5035804;28;20385;-73
2022/12/01 20:56:12;;;;;;;1.58;1.48;;;8.60;99.90;;;;;;5033495;28;20474;-73
2022/12/01 20:58:38;;;;;;;0.40;0.40;;;8.60;99.90;;;;;;5035039;28;20029;-73
2022/12/01 21:01:13;;;;;;;0.63;0.63;;;8.60;99.90;;;;;;5034702;28;20037;-73
2022/12/01 21:03:40;;;;;;;0.45;0.45;;;8.60;99.90;;;;;;5039398;28;20215;-73
2022/12/01 21:06:07;;;;;;;0.25;0.25;;;8.60;99.90;;;;;;5054320;28;20029;-74
2022/12/01 21:08:35;;;;;;;0.25;0.25;;;8.60;99.90;;;;;;5053321;28;20116;-73
2022/12/01 21:11:06;;;;;;;1.38;1.38;;;8.60;99.90;;;;;;5054224;28;20028;-72
2022/12/01 21:13:40;;;;;;;0.25;0.25;;;8.70;99.90;;;;;;5046250;28;20381;-73
2022/12/01 21:16:27;;;;;;;1.00;0.90;;;8.80;99.90;;;;;;5033450;28;20052;-73
2022/12/01 21:18:58;;;;;;;0.40;0.40;;;8.80;99.90;;;;;;5034368;28;20029;-73
2022/12/01 21:21:28;;;;;;;0.30;0.30;;;8.80;99.90;;;;;;5034262;28;20388;-73
2022/12/01 21:24:06;;;;;;;1.42;1.35;;;8.80;99.90;;;;;;5033989;28;20030;-74
2022/12/01 21:26:33;;;;;;;1.00;1.00;;;8.80;99.90;;;;;;5034062;28;20041;-74
2022/12/01 21:28:59;;;;;;;2.67;2.45;;;8.70;99.90;;;;;;5033939;28;20068;-73
2022/12/01 21:31:25;;;;;;;0.40;0.40;;;8.80;99.90;;;;;;5032767;28;20428;-73
2022/12/01 21:33:51;;;;;;;1.70;1.60;;;8.80;99.90;;;;;;5032680;28;20437;-73
2022/12/01 21:36:22;;;;;;;1.02;1.02;;;8.70;99.90;;;;;;5033992;28;20056;-73
2022/12/01 21:38:53;;;;;;;0.33;0.33;;;8.70;99.90;;;;;;5034094;28;20017;-73
2022/12/01 21:41:22;;;;;;;0.70;0.70;;;8.70;99.90;;;;;;5032607;28;20022;-74
2022/12/01 21:43:48;;;;;;;3.00;1.50;;;8.70;99.90;;;;;;5033682;28;20037;-74
2022/12/01 21:46:16;;;;;;;0.30;0.30;;;8.70;99.90;;;;;;5033800;28;20033;-73
2022/12/01 21:48:42;;;;;;;1.08;1.08;;;8.80;99.90;;;;;;5033382;28;20151;-74
2022/12/01 21:51:18;;;;;;;0.60;0.60;;;8.80;99.90;;;;;;5040231;28;20036;-73
2022/12/01 21:53:44;;;;;;;2.50;2.38;;;8.80;99.90;;;;;;5034264;28;20496;-74
2022/12/01 21:56:23;;;;;;;0.93;0.90;;;8.70;99.90;;;;;;5033690;28;20033;-72
2022/12/01 21:58:50;;;;;;;0.25;0.25;;;8.70;99.90;;;;;;5033819;28;20040;-73
2022/12/01 22:01:25;;;;;;;2.05;1.95;;;8.70;99.90;;;;;;5033307;28;20022;-72
2022/12/01 22:03:51;;;;;;;0.77;0.75;;;8.60;99.90;;;;;;5033244;28;20022;-74
2022/12/01 22:06:24;;;;;;;0.40;0.40;;;8.70;99.90;;;;;;5033216;28;20037;-73
2022/12/01 22:08:56;;;;;;;0.30;0.30;;;8.70;99.90;;;;;;5033948;28;20032;-73
2022/12/01 22:11:24;;;;;;;0.30;0.30;;;8.70;99.90;;;;;;5033350;28;20489;-73
2022/12/01 22:13:59;;;;;;;5.07;2.17;;;8.70;99.90;;;;;;5032741;28;20060;-73
2022/12/01 22:16:29;;;;;;;0.30;0.30;;;8.70;99.90;;;;;;5031754;28;20477;-73
2022/12/01 22:18:56;;;;;;;0.68;0.68;;;8.70;99.90;;;;;;5031719;28;20025;-73
2022/12/01 22:21:22;;;;;;;0.35;0.35;;;8.70;99.90;;;;;;5031870;28;20108;-73
2022/12/01 22:24:09;;;;;;;0.57;0.57;;;8.70;99.90;;;;;;5033067;28;20029;-72
2022/12/01 22:26:42;;;;;;;2.08;1.98;;;8.70;99.90;;;;;;5032822;28;20048;-72
2022/12/01 22:29:31;;;;;;;0.30;0.30;;;8.70;99.90;;;;;;5032878;28;20041;-72
2022/12/01 22:32:37;;;;;;;0.50;0.50;;;8.70;99.90;;;;;;5033156;28;20044;-72
2022/12/01 22:35:08;;;;;;;0.60;0.60;;;8.70;99.90;;;;;;5031482;28;20565;-72
2022/12/01 22:37:45;;;;;;;0.28;0.28;;;8.70;99.90;;;;;;5032695;28;20052;-72
2022/12/01 22:40:41;;;;;;;1.20;1.20;;;8.70;99.90;;;;;;5032688;28;20151;-72
2022/12/01 22:43:16;;;;;;;0.50;0.50;;;8.70;99.90;;;;;;5032854;28;20017;-72
2022/12/01 22:45:56;;;;;;;0.68;0.68;;;8.80;99.90;;;;;;5032360;28;20099;-72
2022/12/01 22:48:42;;;;;;;0.52;0.52;;;8.70;99.90;;;;;;5032590;28;20109;-72
2022/12/01 22:51:14;;;;;;;1.70;1.65;;;8.70;99.90;;;;;;5032360;28;20060;-73
2022/12/01 22:53:40;;;;;;;0.30;0.30;;;8.80;99.90;;;;;;5032235;28;20037;-72
2022/12/01 22:56:23;;;;;;;0.38;0.38;;;8.80;99.90;;;;;;5032340;28;20056;-73
2022/12/01 22:58:49;;;;;;;0.40;0.40;;;8.80;99.90;;;;;;5032122;28;20056;-72
2022/12/01 23:01:29;;;;;;;0.80;0.80;;;8.80;99.90;;;;;;5032261;28;20033;-73
2022/12/01 23:04:19;;;;;;;0.30;0.30;;;8.80;99.90;;;;;;5038036;28;20461;-73
2022/12/01 23:06:53;;;;;;;0.85;0.85;;;8.80;99.90;;;;;;5052111;28;20481;-73
2022/12/01 23:09:20;;;;;;;3.63;2.70;;;8.80;99.90;;;;;;5052085;28;20458;-73
2022/12/01 23:12:00;;;;;;;0.73;0.73;;;8.80;99.90;;;;;;5052116;28;20381;-73
2022/12/01 23:14:26;;;;;;;10.98;2.35;;;8.80;99.90;;;;;;5052005;28;20036;-73
2022/12/01 23:17:12;;;;;;;0.77;0.77;;;8.90;99.90;;;;;;5051912;28;20081;-73
2022/12/01 23:19:38;;;;;;;0.20;0.20;;;8.90;99.90;;;;;;5051945;28;20017;-74
2022/12/01 23:22:03;;;;;;;1.77;1.55;;;8.90;99.90;;;;;;5051917;28;20039;-73
2022/12/01 23:24:29;;;;;;;1.17;1.17;;;8.90;99.90;;;;;;5051818;28;20052;-73
2022/12/01 23:26:55;;;;;;;0.43;0.43;;;8.90;99.90;;;;;;5051890;28;20025;-73
2022/12/01 23:29:21;;;;;;;1.02;1.02;;;8.90;99.90;;;;;;5051693;28;20640;-74
2022/12/01 23:31:48;;;;;;;4.18;3.88;;;8.90;99.90;;;;;;5051726;28;20039;-73
2022/12/01 23:34:16;;;;;;;1.48;1.42;;;8.90;99.90;;;;;;5051743;28;20587;-73
2022/12/01 23:36:42;;;;;;;0.38;0.38;;;8.90;99.90;;;;;;5051608;28;20071;-74
2022/12/01 23:39:13;;;;;;;0.40;0.40;;;8.80;99.90;;;;;;5050309;28;20025;-73
2022/12/01 23:41:48;;;;;;;1.58;1.48;;;8.90;99.90;;;;;;5051573;28;20473;-73
2022/12/01 23:44:33;;;;;;;0.20;0.20;;;8.80;99.90;;;;;;5051453;28;20066;-72
2022/12/01 23:46:59;;;;;;;1.13;1.13;;;8.90;99.90;;;;;;5051387;28;20056;-72
2022/12/01 23:49:31;;;;;;;0.35;0.35;;;8.80;99.90;;;;;;5051501;28;20025;-73
2022/12/01 23:52:00;;;;;;;0.30;0.30;;;8.90;99.90;;;;;;5050020;28;20101;-73
2022/12/01 23:54:28;;;;;;;3.15;1.70;;;8.80;99.90;;;;;;5051396;28;20021;-73
2022/12/01 23:56:56;;;;;;;0.40;0.40;;;8.80;99.90;;;;;;5051208;28;20021;-73
2022/12/01 23:59:23;;;;;;;0.95;0.95;;;8.80;99.90;;;;;;5051930;28;20032;-73
